createdAt,value
2022-09-01T00:01:19.649Z,14.00
2022-09-01T00:03:48.947Z,14.00
2022-09-01T00:06:16.135Z,14.00
2022-09-01T00:08:42.818Z,14.00
2022-09-01T00:11:10.349Z,14.00
2022-09-01T00:13:37.034Z,14.00
2022-09-01T00:16:04.407Z,14.00
2022-09-01T00:18:32.721Z,13.90
2022-09-01T00:20:59.707Z,14.00
2022-09-01T00:23:27.029Z,13.90
2022-09-01T00:25:55.220Z,13.90
2022-09-01T00:28:21.955Z,13.90
2022-09-01T00:30:55.443Z,13.90
2022-09-01T00:33:22.175Z,13.80
2022-09-01T00:35:48.849Z,13.80
2022-09-01T00:38:15.580Z,13.70
2022-09-01T00:40:42.309Z,13.70
2022-09-01T00:43:17.073Z,13.70
2022-09-01T00:45:43.861Z,13.60
2022-09-01T00:48:10.534Z,13.50
2022-09-01T00:50:38.030Z,13.50
2022-09-01T00:53:05.486Z,13.50
2022-09-01T00:55:33.052Z,13.50
2022-09-01T00:58:01.150Z,13.50
2022-09-01T01:00:30.480Z,13.40
2022-09-01T01:02:57.534Z,13.30
2022-09-01T01:05:27.951Z,13.20
2022-09-01T01:07:55.823Z,13.20
2022-09-01T01:10:23.130Z,13.20
2022-09-01T01:12:51.730Z,13.20
2022-09-01T01:15:18.997Z,13.30
2022-09-01T01:17:45.731Z,13.30
2022-09-01T01:20:33.566Z,13.30
2022-09-01T01:23:10.833Z,13.30
2022-09-01T01:25:40.716Z,13.20
2022-09-01T01:28:07.389Z,13.30
2022-09-01T01:30:37.097Z,13.30
2022-09-01T01:33:04.504Z,13.30
2022-09-01T01:35:32.090Z,13.30
2022-09-01T01:37:58.720Z,13.40
2022-09-01T01:40:26.081Z,13.40
2022-09-01T01:42:54.037Z,13.40
2022-09-01T01:45:22.078Z,13.40
2022-09-01T01:47:56.432Z,13.30
2022-09-01T01:50:25.297Z,13.20
2022-09-01T01:52:55.167Z,13.10
2022-09-01T01:55:28.784Z,13.10
2022-09-01T01:57:56.360Z,13.30
2022-09-01T02:00:30.248Z,13.30
2022-09-01T02:02:58.139Z,13.40
2022-09-01T02:05:26.435Z,13.50
2022-09-01T02:07:59.553Z,13.50
2022-09-01T02:10:27.201Z,13.40
2022-09-01T02:12:53.908Z,13.30
2022-09-01T02:15:20.799Z,13.30
2022-09-01T02:17:48.923Z,13.20
2022-09-01T02:20:16.296Z,13.20
2022-09-01T02:22:44.698Z,13.10
2022-09-01T02:25:12.189Z,13.10
2022-09-01T02:27:39.634Z,13.00
2022-09-01T02:30:10.969Z,13.00
2022-09-01T02:32:37.646Z,13.00
2022-09-01T02:35:10.083Z,13.00
2022-09-01T02:37:39.365Z,13.00
2022-09-01T02:40:08.217Z,13.00
2022-09-01T02:42:35.522Z,12.90
2022-09-01T02:45:02.937Z,12.90
2022-09-01T02:47:29.850Z,12.80
2022-09-01T02:49:58.523Z,12.80
2022-09-01T02:52:25.225Z,12.90
2022-09-01T02:54:51.958Z,12.80
2022-09-01T02:57:18.634Z,12.80
2022-09-01T02:59:45.679Z,12.80
2022-09-01T03:02:12.393Z,12.80
2022-09-01T03:04:39.154Z,12.80
2022-09-01T03:07:06.456Z,12.70
2022-09-01T03:09:33.884Z,12.70
2022-09-01T03:12:00.551Z,12.70
2022-09-01T03:14:27.299Z,12.60
2022-09-01T03:16:54.278Z,12.50
2022-09-01T03:19:21.061Z,12.50
2022-09-01T03:21:48.768Z,12.50
2022-09-01T03:24:17.882Z,12.50
2022-09-01T03:26:45.581Z,12.50
2022-09-01T03:29:16.929Z,12.50
2022-09-01T03:31:43.678Z,12.40
2022-09-01T03:34:11.224Z,12.40
2022-09-01T03:36:37.986Z,12.40
2022-09-01T03:39:04.633Z,12.40
2022-09-01T03:41:32.172Z,12.30
2022-09-01T03:43:59.544Z,12.30
2022-09-01T03:46:27.045Z,12.40
2022-09-01T03:48:55.276Z,12.40
2022-09-01T03:51:23.048Z,12.40
2022-09-01T03:53:50.845Z,12.40
2022-09-01T03:56:17.525Z,12.30
2022-09-01T03:58:47.325Z,12.20
2022-09-01T04:01:15.991Z,12.20
2022-09-01T04:03:45.046Z,12.20
2022-09-01T04:06:12.875Z,12.10
2022-09-01T04:08:40.673Z,12.10
2022-09-01T04:11:13.946Z,12.20
2022-09-01T04:13:41.236Z,12.10
2022-09-01T04:16:36.742Z,12.10
2022-09-01T04:19:16.005Z,12.10
2022-09-01T04:21:43.962Z,12.10
2022-09-01T04:24:12.251Z,12.10
2022-09-01T04:26:39.077Z,12.20
2022-09-01T04:29:06.881Z,12.20
2022-09-01T04:31:33.739Z,12.20
2022-09-01T04:34:02.151Z,12.20
2022-09-01T04:36:32.432Z,12.30
2022-09-01T04:39:00.763Z,12.30
2022-09-01T04:41:31.080Z,12.30
2022-09-01T04:43:58.949Z,12.30
2022-09-01T04:46:28.512Z,12.30
2022-09-01T04:48:55.519Z,12.30
2022-09-01T04:51:22.249Z,12.40
2022-09-01T04:53:49.038Z,12.50
2022-09-01T04:56:19.500Z,12.60
2022-09-01T04:58:46.963Z,12.60
2022-09-01T05:01:15.236Z,12.70
2022-09-01T05:03:41.989Z,12.80
2022-09-01T05:06:15.878Z,12.90
2022-09-01T05:08:43.471Z,12.90
2022-09-01T05:11:16.886Z,13.00
2022-09-01T05:13:45.500Z,13.00
2022-09-01T05:16:15.069Z,13.00
2022-09-01T05:18:45.626Z,13.00
2022-09-01T05:21:12.675Z,13.10
2022-09-01T05:23:40.665Z,13.20
2022-09-01T05:26:17.079Z,13.30
2022-09-01T05:28:44.420Z,13.40
2022-09-01T05:31:12.780Z,13.50
2022-09-01T05:33:46.002Z,13.50
2022-09-01T05:36:13.622Z,13.50
2022-09-01T05:38:42.325Z,13.60
2022-09-01T05:41:11.190Z,13.60
2022-09-01T05:43:38.754Z,13.70
2022-09-01T05:46:09.205Z,13.80
2022-09-01T05:48:40.246Z,13.90
2022-09-01T05:51:22.449Z,14.10
2022-09-01T05:53:58.989Z,14.10
2022-09-01T05:56:29.733Z,14.20
2022-09-01T06:01:50.285Z,14.30
2022-09-01T06:04:17.535Z,14.40
2022-09-01T06:07:04.156Z,14.40
2022-09-01T06:09:33.627Z,14.50
2022-09-01T06:12:02.823Z,14.60
2022-09-01T06:14:29.575Z,14.50
2022-09-01T06:16:56.448Z,14.70
2022-09-01T06:19:23.186Z,14.70
2022-09-01T06:21:50.175Z,14.80
2022-09-01T06:24:18.101Z,14.80
2022-09-01T06:26:46.352Z,14.80
2022-09-01T06:29:15.489Z,14.80
2022-09-01T06:31:42.552Z,14.90
2022-09-01T06:34:12.127Z,14.90
2022-09-01T06:36:40.707Z,14.90
2022-09-01T06:39:08.426Z,14.90
2022-09-01T06:41:37.579Z,15.00
2022-09-01T06:44:04.260Z,15.00
2022-09-01T06:46:31.965Z,15.10
2022-09-01T06:48:58.990Z,15.30
2022-09-01T06:51:28.603Z,15.30
2022-09-01T06:53:59.323Z,15.50
2022-09-01T06:56:32.254Z,15.50
2022-09-01T06:59:00.051Z,15.60
2022-09-01T07:01:27.676Z,15.60
2022-09-01T07:03:59.398Z,15.60
2022-09-01T07:09:20.084Z,15.90
2022-09-01T07:12:08.460Z,15.90
2022-09-01T07:16:30.156Z,16.00
2022-09-01T07:17:24.151Z,16.00
2022-09-01T07:19:50.863Z,16.00
2022-09-01T07:25:12.932Z,16.10
2022-09-01T07:27:41.574Z,16.30
2022-09-01T07:30:12.396Z,16.30
2022-09-01T07:35:37.030Z,16.60
2022-09-01T07:42:55.723Z,16.90
2022-09-01T07:43:44.746Z,17.20
2022-09-01T07:49:29.231Z,17.30
2022-09-01T07:51:51.857Z,17.40
2022-09-01T07:54:18.601Z,17.40
2022-09-01T07:56:45.327Z,17.30
2022-09-01T07:59:14.716Z,17.30
2022-09-01T08:01:43.153Z,17.30
2022-09-01T08:04:10.030Z,17.40
2022-09-01T08:06:38.486Z,17.40
2022-09-01T08:09:11.532Z,17.40
2022-09-01T08:14:25.351Z,17.50
2022-09-01T08:16:52.946Z,17.50
2022-09-01T08:19:20.075Z,17.60
2022-09-01T08:21:46.794Z,17.60
2022-09-01T08:24:14.348Z,17.60
2022-09-01T08:26:41.284Z,17.50
2022-09-01T08:29:08.017Z,17.50
2022-09-01T08:31:36.198Z,17.60
2022-09-01T08:34:05.521Z,17.70
2022-09-01T08:36:32.737Z,17.70
2022-09-01T08:38:59.432Z,17.60
2022-09-01T08:41:28.584Z,17.70
2022-09-01T08:43:58.013Z,17.70
2022-09-01T08:46:24.825Z,17.80
2022-09-01T08:51:45.774Z,17.80
2022-09-01T08:54:29.677Z,17.90
2022-09-01T08:57:04.244Z,17.90
2022-09-01T08:59:30.944Z,18.00
2022-09-01T09:02:00.606Z,18.00
2022-09-01T09:04:42.391Z,18.00
2022-09-01T09:07:12.993Z,18.20
2022-09-01T09:09:54.227Z,18.30
2022-09-01T09:12:51.174Z,18.50
2022-09-01T09:15:23.679Z,18.70
2022-09-01T09:18:00.393Z,18.80
2022-09-01T09:20:28.166Z,19.00
2022-09-01T09:22:55.411Z,18.90
2022-09-01T09:25:24.257Z,18.70
2022-09-01T09:28:00.582Z,18.50
2022-09-01T09:30:28.514Z,18.30
2022-09-01T09:35:45.761Z,18.00
2022-09-01T09:38:33.613Z,17.90
2022-09-01T09:41:20.116Z,17.80
2022-09-01T09:43:52.086Z,17.80
2022-09-01T09:46:24.558Z,17.80
2022-09-01T09:49:07.103Z,17.70
2022-09-01T09:51:34.305Z,17.70
2022-09-01T09:54:14.612Z,17.70
2022-09-01T09:56:44.509Z,17.70
2022-09-01T09:59:54.116Z,17.70
2022-09-01T10:02:18.758Z,17.60
2022-09-01T10:04:45.477Z,17.60
2022-09-01T10:07:41.650Z,17.60
2022-09-01T10:10:26.608Z,17.50
2022-09-01T10:12:53.880Z,17.60
2022-09-01T10:15:22.687Z,17.60
2022-09-01T10:17:50.915Z,17.70
2022-09-01T10:20:25.392Z,17.70
2022-09-01T10:22:52.384Z,17.70
2022-09-01T10:25:20.947Z,17.80
2022-09-01T10:27:51.151Z,17.90
2022-09-01T10:30:20.264Z,18.10
2022-09-01T10:32:54.961Z,18.20
2022-09-01T10:35:35.242Z,18.40
2022-09-01T10:38:11.989Z,18.70
2022-09-01T10:40:43.860Z,18.90
2022-09-01T10:43:30.667Z,19.20
2022-09-01T10:46:26.714Z,19.30
2022-09-01T10:49:13.171Z,19.40
2022-09-01T10:51:51.510Z,19.60
2022-09-01T10:54:51.820Z,19.90
2022-09-01T10:57:30.602Z,20.00
2022-09-01T11:06:11.359Z,19.60
2022-09-01T11:08:56.605Z,19.60
2022-09-01T11:11:31.627Z,19.50
2022-09-01T11:14:01.528Z,19.50
2022-09-01T11:19:35.143Z,19.40
2022-09-01T11:22:15.719Z,19.40
2022-09-01T11:24:42.514Z,19.60
2022-09-01T11:27:10.602Z,19.70
2022-09-01T11:29:57.870Z,19.80
2022-09-01T11:32:26.625Z,19.80
2022-09-01T11:34:55.072Z,19.90
2022-09-01T11:37:27.357Z,19.80
2022-09-01T11:39:56.116Z,19.60
2022-09-01T11:42:46.887Z,19.60
2022-09-01T11:45:21.624Z,19.60
2022-09-01T11:47:54.231Z,19.50
2022-09-01T11:50:22.939Z,19.50
2022-09-01T11:53:04.779Z,19.60
2022-09-01T11:55:36.866Z,19.80
2022-09-01T11:58:04.402Z,19.80
2022-09-01T12:00:32.577Z,19.80
2022-09-01T12:03:00.125Z,19.90
2022-09-01T12:05:29.848Z,19.90
2022-09-01T12:07:56.813Z,19.80
2022-09-01T12:10:34.453Z,19.70
2022-09-01T12:13:08.733Z,19.70
2022-09-01T12:15:46.435Z,19.70
2022-09-01T12:18:23.434Z,19.70
2022-09-01T12:20:50.922Z,19.50
2022-09-01T12:23:26.129Z,19.40
2022-09-01T12:25:55.810Z,19.40
2022-09-01T12:28:24.870Z,19.30
2022-09-01T12:30:53.398Z,19.20
2022-09-01T12:33:24.182Z,19.10
2022-09-01T12:35:52.515Z,19.20
2022-09-01T12:38:20.786Z,19.20
2022-09-01T12:40:49.814Z,19.30
2022-09-01T12:43:33.940Z,19.30
2022-09-01T12:46:02.925Z,19.20
2022-09-01T12:48:35.248Z,19.20
2022-09-01T12:51:03.806Z,19.20
2022-09-01T12:53:36.125Z,19.20
2022-09-01T12:56:15.905Z,19.20
2022-09-01T12:58:45.498Z,19.20
2022-09-01T13:01:23.729Z,19.20
2022-09-01T13:04:07.065Z,19.20
2022-09-01T13:06:33.857Z,19.20
2022-09-01T13:09:00.533Z,19.30
2022-09-01T13:12:05.792Z,19.20
2022-09-01T13:14:14.889Z,19.20
2022-09-01T13:16:42.384Z,19.30
2022-09-01T13:19:11.171Z,19.20
2022-09-01T13:24:10.689Z,19.20
2022-09-01T13:26:37.770Z,19.20
2022-09-01T13:29:05.144Z,19.30
2022-09-01T13:31:32.921Z,19.30
2022-09-01T13:34:22.251Z,19.30
2022-09-01T13:36:51.480Z,19.30
2022-09-01T13:39:20.371Z,19.30
2022-09-01T13:41:47.638Z,19.30
2022-09-01T13:44:14.514Z,19.20
2022-09-01T13:47:00.550Z,19.20
2022-09-01T13:50:04.679Z,19.30
2022-09-01T13:52:14.204Z,19.30
2022-09-01T13:54:41.044Z,19.30
2022-09-01T13:57:07.725Z,19.40
2022-09-01T13:59:34.759Z,19.40
2022-09-01T14:02:01.685Z,19.30
2022-09-01T14:04:28.639Z,19.40
2022-09-01T14:06:55.444Z,19.30
2022-09-01T14:09:22.455Z,19.30
2022-09-01T14:11:49.145Z,19.20
2022-09-01T14:14:15.831Z,19.20
2022-09-01T14:16:42.482Z,19.30
2022-09-01T14:19:11.153Z,19.30
2022-09-01T14:21:38.888Z,19.30
2022-09-01T14:26:37.495Z,19.40
2022-09-01T14:29:04.160Z,19.40
2022-09-01T14:31:32.029Z,19.40
2022-09-01T14:33:58.746Z,19.50
2022-09-01T14:36:26.195Z,19.60
2022-09-01T14:38:53.293Z,19.70
2022-09-01T14:41:24.130Z,19.80
2022-09-01T14:43:54.197Z,19.90
2022-09-01T14:46:22.703Z,19.90
2022-09-01T14:48:50.758Z,19.90
2022-09-01T14:52:10.445Z,19.90
2022-09-01T14:54:14.474Z,20.10
2022-09-01T14:56:41.936Z,20.00
2022-09-01T14:59:08.944Z,20.10
2022-09-01T15:01:35.809Z,20.00
2022-09-01T15:04:02.668Z,20.10
2022-09-01T15:06:29.411Z,20.00
2022-09-01T15:08:56.214Z,19.90
2022-09-01T15:11:22.940Z,19.80
2022-09-01T15:13:52.191Z,19.80
2022-09-01T15:16:21.941Z,19.70
2022-09-01T15:18:48.736Z,19.50
2022-09-01T15:21:23.854Z,19.50
2022-09-01T15:23:51.034Z,19.40
2022-09-01T15:26:18.057Z,19.30
2022-09-01T15:28:45.153Z,19.30
2022-09-01T15:31:12.997Z,19.30
2022-09-01T15:33:43.784Z,19.50
2022-09-01T15:36:15.655Z,19.50
2022-09-01T15:38:42.587Z,19.60
2022-09-01T15:41:09.453Z,19.70
2022-09-01T15:43:36.990Z,19.80
2022-09-01T15:46:04.739Z,19.80
2022-09-01T15:48:31.421Z,19.80
2022-09-01T15:51:21.588Z,19.70
2022-09-01T15:53:52.895Z,19.70
2022-09-01T15:56:20.279Z,19.60
2022-09-01T15:59:00.372Z,19.50
2022-09-01T16:01:29.535Z,19.50
2022-09-01T16:03:56.441Z,19.50
2022-09-01T16:06:23.462Z,19.40
2022-09-01T16:08:50.488Z,19.40
2022-09-01T16:11:17.276Z,19.20
2022-09-01T16:13:44.040Z,19.10
2022-09-01T16:16:20.245Z,19.00
2022-09-01T16:18:52.357Z,18.90
2022-09-01T16:21:24.365Z,18.80
2022-09-01T16:23:52.061Z,18.70
2022-09-01T16:26:20.432Z,18.70
2022-09-01T16:28:51.809Z,18.60
2022-09-01T16:31:25.949Z,18.60
2022-09-01T16:33:56.808Z,18.60
2022-09-01T16:36:26.475Z,18.60
2022-09-01T16:39:05.197Z,18.50
2022-09-01T16:41:36.175Z,18.40
2022-09-01T16:44:17.918Z,18.40
2022-09-01T16:46:53.116Z,18.30
2022-09-01T16:49:24.195Z,18.20
2022-09-01T16:52:08.009Z,18.20
2022-09-01T16:54:47.818Z,18.10
2022-09-01T16:57:25.301Z,18.10
2022-09-01T16:59:55.713Z,18.10
2022-09-01T17:02:42.040Z,17.90
2022-09-01T17:05:14.762Z,17.90
2022-09-01T17:07:48.640Z,17.90
2022-09-01T17:10:33.956Z,17.90
2022-09-01T17:13:17.359Z,17.90
2022-09-01T17:15:47.969Z,18.00
2022-09-01T17:18:22.252Z,18.00
2022-09-01T17:20:58.234Z,17.90
2022-09-01T17:23:30.807Z,17.90
2022-09-01T17:26:03.103Z,17.90
2022-09-01T17:28:37.790Z,17.90
2022-09-01T17:31:22.733Z,17.80
2022-09-01T17:34:02.497Z,17.80
2022-09-01T17:36:36.919Z,17.60
2022-09-01T17:39:20.986Z,17.60
2022-09-01T17:41:52.810Z,17.50
2022-09-01T17:44:28.586Z,17.50
2022-09-01T17:47:01.891Z,17.40
2022-09-01T17:49:33.321Z,17.40
2022-09-01T17:52:19.271Z,17.30
2022-09-01T17:54:51.790Z,17.20
2022-09-01T17:57:21.484Z,17.00
2022-09-01T18:00:01.913Z,17.00
2022-09-01T18:02:40.789Z,16.90
2022-09-01T18:05:15.578Z,16.70
2022-09-01T18:07:51.731Z,16.70
2022-09-01T18:10:23.147Z,16.50
2022-09-01T18:12:52.557Z,16.50
2022-09-01T18:15:22.525Z,16.40
2022-09-01T18:17:54.206Z,16.40
2022-09-01T18:20:34.979Z,16.30
2022-09-01T18:23:06.574Z,16.10
2022-09-01T18:25:44.910Z,16.10
2022-09-01T18:28:13.325Z,16.00
2022-09-01T18:30:52.568Z,15.90
2022-09-01T18:33:22.554Z,15.80
2022-09-01T18:36:09.513Z,15.70
2022-09-01T18:38:36.242Z,15.70
2022-09-01T18:41:18.002Z,15.60
2022-09-01T18:44:05.002Z,15.60
2022-09-01T18:46:39.270Z,15.60
2022-09-01T18:49:08.806Z,15.50
2022-09-01T18:51:36.208Z,15.50
2022-09-01T18:54:02.830Z,15.40
2022-09-01T18:56:44.662Z,15.40
2022-09-01T18:59:11.309Z,15.30
2022-09-01T19:01:41.982Z,15.30
2022-09-01T19:04:14.939Z,15.20
2022-09-01T19:06:54.189Z,15.10
2022-09-01T19:09:30.705Z,15.00
2022-09-01T19:12:16.106Z,14.90
2022-09-01T19:14:42.735Z,14.90
2022-09-01T19:17:09.415Z,14.80
2022-09-01T19:19:38.110Z,14.70
2022-09-01T19:22:04.960Z,14.70
2022-09-01T19:24:43.835Z,14.60
2022-09-01T19:27:13.081Z,14.60
2022-09-01T19:29:45.427Z,14.60
2022-09-01T19:32:18.293Z,14.50
2022-09-01T19:34:48.664Z,14.50
2022-09-01T19:37:15.459Z,14.40
2022-09-01T19:39:44.679Z,14.40
2022-09-01T19:42:15.673Z,14.40
2022-09-01T19:44:44.721Z,14.40
2022-09-01T19:47:30.761Z,14.40
2022-09-01T19:50:04.941Z,14.30
2022-09-01T19:52:38.484Z,14.10
2022-09-01T19:55:30.495Z,14.10
2022-09-01T19:58:01.572Z,14.10
2022-09-01T20:00:35.405Z,14.10
2022-09-01T20:03:12.576Z,14.10
2022-09-01T20:05:39.292Z,14.10
2022-09-01T20:08:08.360Z,14.20
2022-09-01T20:10:56.322Z,14.20
2022-09-01T20:13:29.502Z,14.20
2022-09-01T20:15:59.448Z,14.10
2022-09-01T20:18:32.284Z,14.00
2022-09-01T20:21:00.113Z,13.80
2022-09-01T20:23:28.657Z,13.80
2022-09-01T20:25:58.877Z,13.80
2022-09-01T20:28:41.330Z,13.70
2022-09-01T20:31:18.374Z,13.70
2022-09-01T20:33:49.564Z,13.70
2022-09-01T20:36:16.203Z,13.60
2022-09-01T20:39:09.871Z,13.50
2022-09-01T20:41:49.735Z,13.50
2022-09-01T20:44:24.818Z,13.60
2022-09-01T20:46:52.459Z,13.50
2022-09-01T20:49:19.245Z,13.50
2022-09-01T20:52:02.527Z,13.40
2022-09-01T20:54:47.389Z,13.30
2022-09-01T20:57:37.567Z,13.30
2022-09-01T21:00:06.222Z,13.20
2022-09-01T21:02:53.173Z,13.20
2022-09-01T21:05:23.063Z,13.10
2022-09-01T21:07:52.553Z,13.10
2022-09-01T21:10:37.946Z,13.10
2022-09-01T21:13:17.056Z,13.10
2022-09-01T21:15:59.319Z,13.10
2022-09-01T21:18:26.015Z,13.10
2022-09-01T21:20:55.775Z,13.10
2022-09-01T21:23:22.686Z,13.00
2022-09-01T21:25:49.800Z,12.90
2022-09-01T21:28:20.205Z,12.90
2022-09-01T21:30:57.098Z,12.80
2022-09-01T21:33:25.859Z,12.70
2022-09-01T21:35:52.813Z,12.70
2022-09-01T21:38:19.512Z,12.70
2022-09-01T21:40:47.117Z,12.70
2022-09-01T21:43:20.034Z,12.60
2022-09-01T21:45:46.950Z,12.50
2022-09-01T21:48:13.961Z,12.40
2022-09-01T21:50:41.024Z,12.30
2022-09-01T21:53:11.121Z,12.30
2022-09-01T21:55:37.897Z,12.30
2022-09-01T21:58:04.545Z,12.30
2022-09-01T22:00:32.624Z,12.20
2022-09-01T22:03:00.364Z,12.30
2022-09-01T22:05:27.733Z,12.30
2022-09-01T22:07:55.967Z,12.30
2022-09-01T22:10:26.060Z,12.20
2022-09-01T22:12:52.982Z,12.10
2022-09-01T22:15:20.936Z,12.00
2022-09-01T22:17:47.732Z,12.00
2022-09-01T22:20:17.101Z,12.00
2022-09-01T22:22:44.102Z,12.10
2022-09-01T22:25:12.738Z,12.10
2022-09-01T22:27:39.913Z,12.00
2022-09-01T22:30:07.351Z,12.00
2022-09-01T22:32:36.207Z,12.00
2022-09-01T22:35:04.097Z,12.00
2022-09-01T22:37:30.756Z,12.00
2022-09-01T22:39:57.433Z,12.00
2022-09-01T22:42:24.857Z,11.90
2022-09-01T22:44:51.663Z,11.90
2022-09-01T22:47:18.319Z,11.90
2022-09-01T22:49:44.977Z,11.90
2022-09-01T22:52:11.727Z,11.90
2022-09-01T22:54:40.639Z,11.80
2022-09-01T22:57:07.589Z,11.80
2022-09-01T22:59:34.301Z,11.70
2022-09-01T23:02:01.874Z,11.60
2022-09-01T23:04:30.947Z,11.50
2022-09-01T23:06:58.249Z,11.60
2022-09-01T23:09:24.945Z,11.60
2022-09-01T23:11:51.920Z,11.60
2022-09-01T23:14:18.638Z,11.60
2022-09-01T23:16:45.782Z,11.60
2022-09-01T23:19:12.844Z,11.60
2022-09-01T23:21:39.574Z,11.60
2022-09-01T23:24:06.623Z,11.70
2022-09-01T23:26:33.574Z,11.60
2022-09-01T23:29:00.323Z,11.60
2022-09-01T23:31:28.943Z,11.60
2022-09-01T23:33:55.857Z,11.50
2022-09-01T23:36:23.948Z,11.50
2022-09-01T23:38:51.313Z,11.40
2022-09-01T23:41:23.185Z,11.40
2022-09-01T23:43:51.121Z,11.40
2022-09-01T23:46:19.367Z,11.40
2022-09-01T23:48:46.309Z,11.40
2022-09-01T23:51:13.417Z,11.40
2022-09-01T23:53:40.363Z,11.40
2022-09-01T23:56:11.481Z,11.40
2022-09-01T23:58:38.935Z,11.40
